createdAt,value
2022-12-08T00:46:12.098Z,21.70
2022-12-08T00:48:40.836Z,21.20
2022-12-08T00:51:09.447Z,21.20
2022-12-08T00:53:37.728Z,21.20
2022-12-08T00:56:06.720Z,21.20
2022-12-08T00:58:35.017Z,21.00
2022-12-08T01:46:08.842Z,21.30
2022-12-08T01:48:37.477Z,21.20
2022-12-08T01:51:06.850Z,21.20
2022-12-08T01:53:35.781Z,21.30
2022-12-08T01:56:10.688Z,21.30
2022-12-08T01:58:44.877Z,21.30
2022-12-08T02:45:13.254Z,21.00
2022-12-08T02:47:43.568Z,21.00
2022-12-08T02:50:13.472Z,21.00
2022-12-08T02:52:47.046Z,20.70
2022-12-08T02:55:25.511Z,21.00
2022-12-08T02:58:21.036Z,20.90
2022-12-08T03:46:41.916Z,21.00
2022-12-08T03:49:13.648Z,21.00
2022-12-08T03:51:42.276Z,21.00
2022-12-08T03:54:10.583Z,21.00
2022-12-08T03:56:41.082Z,21.00
2022-12-08T03:59:10.069Z,20.90
2022-12-08T04:45:41.632Z,21.80
2022-12-08T04:48:12.599Z,21.70
2022-12-08T04:50:42.835Z,21.80
2022-12-08T04:53:12.827Z,21.70
2022-12-08T04:55:43.679Z,21.70
2022-12-08T04:58:14.856Z,21.70
2022-12-08T05:30:10.329Z,21.50
2022-12-08T05:32:40.100Z,21.50
2022-12-08T05:35:09.696Z,21.50
2022-12-08T05:37:38.024Z,21.50
2022-12-08T05:40:08.344Z,21.50
2022-12-08T05:42:36.790Z,21.40
2022-12-08T05:45:06.456Z,21.40
2022-12-08T05:47:36.322Z,21.40
2022-12-08T05:50:08.553Z,21.40
2022-12-08T05:52:36.910Z,21.30
2022-12-08T05:55:05.711Z,21.40
2022-12-08T05:57:34.067Z,21.30
2022-12-08T06:00:02.933Z,21.30
2022-12-08T06:02:40.225Z,21.30
2022-12-08T06:05:10.685Z,21.30
2022-12-08T06:07:39.098Z,21.30
2022-12-08T06:10:09.422Z,21.20
2022-12-08T06:12:37.745Z,21.30
2022-12-08T06:15:07.253Z,21.20
2022-12-08T06:17:35.943Z,21.20
2022-12-08T06:20:05.384Z,21.40
2022-12-08T06:22:35.747Z,21.20
2022-12-08T06:25:07.289Z,21.20
2022-12-08T06:27:38.108Z,21.20
2022-12-08T06:30:08.561Z,21.10
2022-12-08T06:32:37.850Z,21.20
2022-12-08T06:35:08.244Z,21.20
2022-12-08T06:37:38.443Z,21.10
2022-12-08T06:40:08.945Z,21.20
2022-12-08T06:42:47.107Z,21.20
2022-12-08T06:45:17.509Z,21.20
2022-12-08T06:47:46.114Z,21.20
2022-12-08T06:50:15.491Z,21.40
2022-12-08T06:52:55.937Z,21.30
2022-12-08T06:58:21.435Z,21.20
2022-12-08T07:00:49.870Z,21.30
2022-12-08T07:03:18.466Z,21.20
2022-12-08T07:05:46.917Z,21.20
2022-12-08T07:08:16.900Z,21.20
2022-12-08T07:10:45.385Z,21.30
2022-12-08T07:13:16.524Z,21.30
2022-12-08T07:15:44.932Z,22.20
2022-12-08T07:18:13.495Z,21.30
2022-12-08T07:20:41.921Z,21.20
2022-12-08T07:23:10.800Z,21.20
2022-12-08T07:25:40.517Z,21.20
2022-12-08T07:28:12.517Z,21.20
2022-12-08T07:30:41.015Z,21.20
2022-12-08T07:33:09.410Z,20.90
2022-12-08T07:35:37.786Z,21.20
2022-12-08T07:38:06.248Z,21.20
2022-12-08T07:40:34.904Z,21.10
2022-12-08T07:43:04.908Z,21.20
2022-12-08T07:45:33.220Z,21.20
2022-12-08T07:48:01.535Z,21.10
2022-12-08T07:50:30.097Z,21.20
2022-12-08T07:52:58.764Z,21.20
2022-12-08T07:55:27.831Z,21.10
2022-12-08T07:57:56.355Z,21.10
2022-12-08T08:00:26.688Z,21.20
2022-12-08T08:02:55.062Z,21.10
2022-12-08T08:05:24.462Z,21.70
2022-12-08T08:07:52.934Z,21.30
2022-12-08T08:10:21.515Z,21.10
2022-12-08T08:15:21.065Z,20.60
2022-12-08T08:17:53.149Z,21.10
2022-12-08T08:20:22.812Z,21.10
2022-12-08T08:22:52.465Z,21.00
2022-12-08T08:25:23.383Z,21.10
2022-12-08T08:27:52.075Z,21.00
2022-12-08T08:30:21.315Z,21.00
2022-12-08T08:45:20.665Z,20.80
2022-12-08T08:47:49.308Z,20.90
2022-12-08T08:50:19.019Z,21.00
2022-12-08T08:55:16.836Z,20.80
2022-12-08T08:57:48.054Z,20.40
2022-12-08T09:00:17.835Z,21.00
2022-12-08T09:07:46.814Z,20.90
2022-12-08T09:10:16.048Z,21.00
2022-12-08T09:17:45.378Z,20.90
2022-12-08T09:22:44.767Z,21.00
2022-12-08T10:37:34.372Z,20.80
2022-12-08T11:06:26.758Z,20.60
2022-12-08T11:08:58.286Z,20.80
2022-12-08T11:11:46.282Z,20.80
2022-12-08T11:14:23.422Z,20.80
2022-12-08T11:16:56.605Z,20.80
2022-12-08T11:19:28.850Z,20.80
2022-12-08T11:22:00.749Z,20.90
2022-12-08T11:24:37.781Z,20.80
2022-12-08T11:27:10.415Z,20.70
2022-12-08T11:32:14.779Z,20.80
2022-12-08T11:34:47.573Z,20.90
2022-12-08T11:37:23.910Z,20.80
2022-12-08T11:42:34.093Z,21.70
2022-12-08T11:47:44.027Z,20.80
2022-12-08T11:50:23.006Z,20.90
2022-12-08T11:52:52.929Z,20.80
2022-12-08T11:55:37.106Z,20.90
2022-12-08T11:58:19.110Z,20.90
2022-12-08T12:00:47.831Z,20.90
2022-12-08T12:03:28.604Z,20.90
2022-12-08T12:06:46.477Z,20.90
2022-12-08T12:17:55.759Z,21.40
2022-12-08T12:20:30.832Z,21.90
2022-12-08T12:23:06.001Z,22.00
2022-12-08T12:25:36.865Z,22.10
2022-12-08T12:28:08.985Z,22.30
2022-12-08T12:30:59.512Z,22.30
2022-12-08T12:33:28.886Z,22.40
2022-12-08T12:35:58.607Z,22.50
2022-12-08T12:50:05.736Z,22.40
2022-12-08T12:52:43.583Z,22.30
2022-12-08T12:55:54.523Z,22.20
2022-12-08T12:58:42.791Z,22.10
2022-12-08T13:01:55.321Z,22.10
2022-12-08T13:04:35.141Z,22.10
2022-12-08T13:07:04.233Z,22.10
2022-12-08T13:09:37.495Z,22.00
2022-12-08T13:12:12.432Z,21.90
2022-12-08T13:14:48.580Z,21.90
2022-12-08T13:17:28.295Z,21.90
2022-12-08T13:20:01.379Z,21.70
2022-12-08T13:23:04.922Z,21.80
2022-12-08T13:26:15.435Z,21.80
2022-12-08T13:29:18.779Z,21.80
2022-12-08T13:34:41.287Z,21.60
2022-12-08T13:37:26.814Z,21.70
2022-12-08T13:40:00.285Z,21.70
2022-12-08T13:42:42.278Z,21.70
2022-12-08T13:45:39.793Z,21.90
2022-12-08T13:48:42.330Z,21.70
2022-12-08T13:57:10.158Z,21.70
2022-12-08T13:59:46.371Z,21.70
2022-12-08T14:02:23.976Z,21.70
2022-12-08T14:05:17.553Z,21.60
2022-12-08T14:07:43.325Z,21.60
2022-12-08T14:10:20.600Z,21.50
2022-12-08T14:12:57.073Z,21.60
2022-12-08T14:18:02.662Z,21.50
2022-12-08T14:20:46.529Z,21.70
2022-12-08T14:23:22.002Z,21.60
2022-12-08T14:25:52.786Z,21.60
2022-12-08T14:30:56.240Z,21.50
2022-12-08T14:33:24.912Z,21.50
2022-12-08T14:35:56.671Z,21.60
2022-12-08T14:38:27.124Z,21.50
2022-12-08T14:41:08.913Z,21.50
2022-12-08T14:43:37.422Z,21.40
2022-12-08T14:46:20.712Z,21.50
2022-12-08T14:48:49.540Z,21.50
2022-12-08T14:51:28.179Z,21.50
2022-12-08T14:53:59.803Z,21.50
2022-12-08T14:56:35.176Z,21.50
2022-12-08T14:59:13.818Z,21.50
2022-12-08T15:01:43.367Z,21.50
2022-12-08T15:04:20.909Z,21.60
2022-12-08T15:06:54.357Z,21.60
2022-12-08T15:09:33.720Z,21.50
2022-12-08T15:12:06.234Z,21.50
2022-12-08T15:14:37.367Z,21.50
2022-12-08T15:17:31.109Z,21.50
2022-12-08T15:59:00.085Z,21.40
2022-12-08T16:01:28.774Z,21.60
2022-12-08T16:04:36.875Z,21.50
2022-12-08T16:23:46.008Z,21.60
2022-12-08T16:26:35.537Z,21.70
2022-12-08T16:42:11.493Z,21.80
2022-12-08T16:44:42.728Z,21.90
2022-12-08T16:49:41.816Z,21.80
2022-12-08T16:59:40.619Z,22.00
2022-12-08T17:04:44.882Z,21.70
2022-12-08T17:12:14.251Z,21.60
2022-12-08T17:14:42.688Z,21.70
2022-12-08T17:17:12.898Z,21.80
2022-12-08T17:19:41.635Z,21.80
2022-12-08T17:22:09.996Z,21.80
2022-12-08T17:24:39.525Z,21.70
2022-12-08T17:27:07.889Z,21.80
2022-12-08T17:29:37.923Z,21.90
2022-12-08T17:32:07.775Z,21.80
2022-12-08T17:34:37.683Z,22.00
2022-12-08T17:37:06.037Z,22.30
2022-12-08T17:39:34.641Z,22.60
2022-12-08T17:42:03.090Z,22.90
2022-12-08T17:44:31.942Z,23.20
2022-12-08T17:47:00.563Z,23.40
2022-12-08T17:49:30.576Z,23.50
2022-12-08T17:52:02.587Z,23.50
2022-12-08T17:54:31.014Z,23.60
2022-12-08T17:57:00.188Z,23.50
2022-12-08T17:59:30.044Z,23.50
2022-12-08T18:01:59.063Z,23.50
2022-12-08T18:04:29.387Z,23.50
2022-12-08T18:07:01.238Z,23.60
2022-12-08T18:09:32.711Z,23.60
2022-12-08T18:12:01.221Z,23.60
2022-12-08T18:14:29.562Z,23.40
2022-12-08T18:16:58.206Z,23.40
2022-12-08T18:19:27.888Z,23.30
2022-12-08T18:21:56.270Z,23.20
2022-12-08T18:24:26.307Z,23.10
2022-12-08T18:26:55.397Z,23.00
2022-12-08T18:29:25.010Z,23.10
2022-12-08T18:31:53.596Z,23.00
2022-12-08T18:34:22.520Z,22.90
2022-12-08T18:44:24.693Z,22.60
2022-12-08T18:46:53.163Z,23.00
2022-12-08T18:51:51.314Z,22.80
2022-12-08T18:59:37.437Z,22.90
2022-12-08T19:02:06.253Z,23.20
2022-12-08T19:04:38.558Z,23.30
2022-12-08T19:07:07.870Z,23.40
2022-12-08T19:09:36.520Z,23.30
2022-12-08T19:12:07.407Z,23.20
2022-12-08T19:22:05.329Z,23.30
2022-12-08T19:27:08.690Z,22.90
2022-12-08T19:29:37.158Z,23.00
2022-12-08T19:37:04.041Z,22.80
2022-12-08T19:39:49.994Z,23.00
2022-12-08T19:42:39.402Z,23.00
2022-12-08T19:45:12.419Z,23.00
2022-12-08T19:47:41.867Z,23.00
2022-12-08T19:50:30.656Z,23.00
2022-12-08T19:52:59.716Z,22.90
2022-12-08T19:55:29.109Z,23.00
2022-12-08T19:57:59.727Z,23.10
2022-12-08T20:00:28.577Z,23.10
2022-12-08T20:02:59.757Z,23.00
2022-12-08T20:05:28.689Z,23.20
2022-12-08T20:07:57.310Z,23.10
2022-12-08T20:10:30.180Z,23.10
2022-12-08T20:13:14.205Z,23.00
2022-12-08T20:15:43.280Z,23.10
2022-12-08T20:18:12.654Z,22.90
2022-12-08T20:20:41.721Z,22.90
2022-12-08T20:23:10.585Z,22.80
2022-12-08T20:25:39.949Z,22.70
2022-12-08T20:28:10.198Z,22.60
2022-12-08T20:30:40.163Z,22.60
2022-12-08T20:33:08.956Z,22.60
2022-12-08T20:35:37.535Z,22.60
2022-12-08T20:38:05.875Z,22.50
2022-12-08T20:40:34.597Z,22.50
2022-12-08T20:43:03.097Z,22.50
2022-12-08T20:45:32.776Z,22.50
2022-12-08T20:48:01.318Z,22.50
2022-12-08T20:50:30.081Z,22.40
2022-12-08T20:52:58.799Z,22.50
2022-12-08T20:55:27.528Z,22.40
2022-12-08T20:57:56.014Z,22.30
2022-12-08T21:00:27.257Z,22.30
2022-12-08T21:02:57.646Z,22.30
2022-12-08T21:05:26.376Z,22.40
2022-12-08T21:07:55.132Z,22.40
2022-12-08T21:10:24.335Z,22.30
2022-12-08T21:12:52.935Z,22.30
2022-12-08T21:15:21.636Z,22.30
2022-12-08T21:17:50.296Z,22.30
2022-12-08T21:20:20.231Z,22.30
2022-12-08T21:22:48.791Z,22.30
2022-12-08T21:25:17.412Z,22.20
2022-12-08T21:27:45.928Z,22.20
2022-12-08T21:30:16.310Z,22.20
2022-12-08T21:32:45.950Z,22.10
2022-12-08T21:35:14.608Z,22.20
2022-12-08T21:37:44.500Z,22.20
2022-12-08T21:40:14.484Z,22.10
2022-12-08T21:42:45.767Z,22.10
2022-12-08T21:45:20.615Z,22.10
2022-12-08T21:47:50.707Z,22.10
2022-12-08T21:50:20.556Z,22.10
2022-12-08T21:52:51.030Z,22.00
2022-12-08T21:55:20.361Z,22.20
2022-12-08T21:57:48.967Z,22.00
2022-12-08T22:00:19.678Z,22.10
2022-12-08T22:02:48.328Z,22.10
2022-12-08T22:05:17.100Z,22.10
2022-12-08T22:07:45.722Z,22.10
2022-12-08T22:10:15.757Z,22.10
2022-12-08T22:12:44.768Z,22.10
2022-12-08T22:15:14.118Z,22.10
2022-12-08T22:17:45.127Z,22.20
2022-12-08T22:20:16.080Z,22.20
2022-12-08T22:22:45.961Z,22.30
2022-12-08T22:25:16.123Z,22.30
2022-12-08T22:27:44.804Z,22.30
2022-12-08T22:30:13.929Z,22.20
2022-12-08T22:32:42.857Z,22.20
2022-12-08T22:57:15.524Z,21.90
2022-12-08T22:59:44.146Z,22.00
2022-12-08T23:02:12.964Z,22.00
2022-12-08T23:04:41.986Z,22.00
2022-12-08T23:07:11.199Z,22.00
2022-12-08T23:09:41.108Z,21.90
2022-12-08T23:12:10.608Z,22.00
2022-12-08T23:14:41.509Z,22.10
2022-12-08T23:46:24.825Z,21.90
2022-12-08T23:48:53.754Z,21.70
2022-12-08T23:51:22.336Z,21.70
2022-12-08T23:53:50.878Z,21.70
2022-12-08T23:56:22.237Z,21.70
2022-12-08T23:58:52.818Z,21.70
